sensor_id;sensor_type;location;lat;lon;timestamp;temperature;humidity
46231;DHT22;31949;51.404;-0.038;2023-03-26T00:01:30;10.00;99.90
46231;DHT22;31949;51.404;-0.038;2023-03-26T00:04:03;10.00;99.90
46231;DHT22;31949;51.404;-0.038;2023-03-26T00:06:34;10.00;99.90
46231;DHT22;31949;51.404;-0.038;2023-03-26T00:09:05;10.00;99.90
46231;DHT22;31949;51.404;-0.038;2023-03-26T00:11:33;10.00;99.90
46231;DHT22;31949;51.404;-0.038;2023-03-26T00:14:00;9.90;99.90
46231;DHT22;31949;51.404;-0.038;2023-03-26T00:16:30;9.90;99.90
46231;DHT22;31949;51.404;-0.038;2023-03-26T00:18:58;9.90;99.90
46231;DHT22;31949;51.404;-0.038;2023-03-26T00:21:28;9.90;99.90
46231;DHT22;31949;51.404;-0.038;2023-03-26T00:24:05;9.90;99.90
46231;DHT22;31949;51.404;-0.038;2023-03-26T00:26:33;9.90;99.90
46231;DHT22;31949;51.404;-0.038;2023-03-26T00:29:01;9.90;99.90
46231;DHT22;31949;51.404;-0.038;2023-03-26T00:31:30;9.90;99.90
46231;DHT22;31949;51.404;-0.038;2023-03-26T00:33:57;9.90;99.90
46231;DHT22;31949;51.404;-0.038;2023-03-26T00:36:25;9.90;99.90
46231;DHT22;31949;51.404;-0.038;2023-03-26T00:38:53;9.90;99.90
46231;DHT22;31949;51.404;-0.038;2023-03-26T00:41:23;9.90;99.90
46231;DHT22;31949;51.404;-0.038;2023-03-26T00:43:58;9.80;99.90
46231;DHT22;31949;51.404;-0.038;2023-03-26T00:46:28;9.80;99.90
46231;DHT22;31949;51.404;-0.038;2023-03-26T00:48:56;9.80;99.90
46231;DHT22;31949;51.404;-0.038;2023-03-26T00:51:25;9.80;99.90
46231;DHT22;31949;51.404;-0.038;2023-03-26T00:53:54;9.70;99.90
46231;DHT22;31949;51.404;-0.038;2023-03-26T00:56:22;9.70;99.90
46231;DHT22;31949;51.404;-0.038;2023-03-26T00:58:49;9.70;99.90
46231;DHT22;31949;51.404;-0.038;2023-03-26T01:01:23;9.80;99.90
46231;DHT22;31949;51.404;-0.038;2023-03-26T01:03:56;9.70;99.90
46231;DHT22;31949;51.404;-0.038;2023-03-26T01:06:37;9.70;99.90
46231;DHT22;31949;51.404;-0.038;2023-03-26T01:09:14;9.70;99.90
46231;DHT22;31949;51.404;-0.038;2023-03-26T01:11:42;9.70;99.90
46231;DHT22;31949;51.404;-0.038;2023-03-26T01:14:13;9.70;99.90
46231;DHT22;31949;51.404;-0.038;2023-03-26T01:17:11;9.70;99.90
46231;DHT22;31949;51.404;-0.038;2023-03-26T01:19:47;9.70;99.90
46231;DHT22;31949;51.404;-0.038;2023-03-26T01:22:22;9.70;99.90
46231;DHT22;31949;51.404;-0.038;2023-03-26T01:24:50;9.70;99.90
46231;DHT22;31949;51.404;-0.038;2023-03-26T01:27:33;9.70;99.90
46231;DHT22;31949;51.404;-0.038;2023-03-26T01:41:03;9.70;99.90
46231;DHT22;31949;51.404;-0.038;2023-03-26T01:46:08;9.60;99.90
46231;DHT22;31949;51.404;-0.038;2023-03-26T01:48:40;9.60;99.90
46231;DHT22;31949;51.404;-0.038;2023-03-26T01:51:10;9.70;99.90
46231;DHT22;31949;51.404;-0.038;2023-03-26T01:53:45;9.70;99.90
46231;DHT22;31949;51.404;-0.038;2023-03-26T01:59:58;9.70;99.90
46231;DHT22;31949;51.404;-0.038;2023-03-26T02:03:03;9.70;99.90
46231;DHT22;31949;51.404;-0.038;2023-03-26T02:05:11;9.70;99.90
46231;DHT22;31949;51.404;-0.038;2023-03-26T02:07:52;9.70;99.90
46231;DHT22;31949;51.404;-0.038;2023-03-26T02:10:27;9.70;99.90
46231;DHT22;31949;51.404;-0.038;2023-03-26T02:12:55;9.70;99.90
46231;DHT22;31949;51.404;-0.038;2023-03-26T02:15:23;9.70;99.90
46231;DHT22;31949;51.404;-0.038;2023-03-26T02:17:51;9.70;99.90
46231;DHT22;31949;51.404;-0.038;2023-03-26T02:20:20;9.80;99.90
46231;DHT22;31949;51.404;-0.038;2023-03-26T02:22:47;9.80;99.90
46231;DHT22;31949;51.404;-0.038;2023-03-26T02:25:19;9.80;99.90
46231;DHT22;31949;51.404;-0.038;2023-03-26T02:27:50;9.80;99.90
46231;DHT22;31949;51.404;-0.038;2023-03-26T02:30:20;9.80;99.90
46231;DHT22;31949;51.404;-0.038;2023-03-26T02:32:54;9.80;99.90
46231;DHT22;31949;51.404;-0.038;2023-03-26T02:35:30;9.80;99.90
46231;DHT22;31949;51.404;-0.038;2023-03-26T02:38:00;9.90;99.90
46231;DHT22;31949;51.404;-0.038;2023-03-26T02:40:27;9.90;99.90
46231;DHT22;31949;51.404;-0.038;2023-03-26T02:42:55;9.90;99.90
46231;DHT22;31949;51.404;-0.038;2023-03-26T02:45:25;9.80;99.90
46231;DHT22;31949;51.404;-0.038;2023-03-26T02:48:19;9.80;99.90
46231;DHT22;31949;51.404;-0.038;2023-03-26T02:51:03;9.80;99.90
46231;DHT22;31949;51.404;-0.038;2023-03-26T02:53:33;9.80;99.90
46231;DHT22;31949;51.404;-0.038;2023-03-26T02:56:34;9.80;99.90
46231;DHT22;31949;51.404;-0.038;2023-03-26T02:59:24;9.80;99.90
46231;DHT22;31949;51.404;-0.038;2023-03-26T03:02:15;9.80;99.90
46231;DHT22;31949;51.404;-0.038;2023-03-26T03:04:42;9.80;99.90
46231;DHT22;31949;51.404;-0.038;2023-03-26T03:07:10;9.80;99.90
46231;DHT22;31949;51.404;-0.038;2023-03-26T03:09:40;9.70;99.90
46231;DHT22;31949;51.404;-0.038;2023-03-26T03:12:46;9.70;99.90
46231;DHT22;31949;51.404;-0.038;2023-03-26T03:15:13;9.70;99.90
46231;DHT22;31949;51.404;-0.038;2023-03-26T03:17:40;9.80;99.90
46231;DHT22;31949;51.404;-0.038;2023-03-26T03:20:10;9.70;99.90
46231;DHT22;31949;51.404;-0.038;2023-03-26T03:22:39;9.80;99.90
46231;DHT22;31949;51.404;-0.038;2023-03-26T03:25:07;9.80;99.90
46231;DHT22;31949;51.404;-0.038;2023-03-26T03:27:44;9.70;99.90
46231;DHT22;31949;51.404;-0.038;2023-03-26T03:30:13;9.80;99.90
46231;DHT22;31949;51.404;-0.038;2023-03-26T03:32:46;9.70;99.90
46231;DHT22;31949;51.404;-0.038;2023-03-26T03:35:19;9.70;99.90
46231;DHT22;31949;51.404;-0.038;2023-03-26T03:37:50;9.70;99.90
46231;DHT22;31949;51.404;-0.038;2023-03-26T03:40:18;9.70;99.90
46231;DHT22;31949;51.404;-0.038;2023-03-26T03:42:46;9.70;99.90
46231;DHT22;31949;51.404;-0.038;2023-03-26T03:45:20;9.70;99.90
46231;DHT22;31949;51.404;-0.038;2023-03-26T03:48:05;9.70;99.90
46231;DHT22;31949;51.404;-0.038;2023-03-26T03:50:38;9.70;99.90
46231;DHT22;31949;51.404;-0.038;2023-03-26T03:53:25;9.60;99.90
46231;DHT22;31949;51.404;-0.038;2023-03-26T03:55:55;9.60;99.90
46231;DHT22;31949;51.404;-0.038;2023-03-26T03:58:43;9.60;99.90
46231;DHT22;31949;51.404;-0.038;2023-03-26T04:01:17;9.60;99.90
46231;DHT22;31949;51.404;-0.038;2023-03-26T04:04:07;9.60;99.90
46231;DHT22;31949;51.404;-0.038;2023-03-26T04:06:50;9.50;99.90
46231;DHT22;31949;51.404;-0.038;2023-03-26T04:09:18;9.40;99.90
46231;DHT22;31949;51.404;-0.038;2023-03-26T04:11:47;9.40;99.90
46231;DHT22;31949;51.404;-0.038;2023-03-26T04:14:51;9.30;99.90
46231;DHT22;31949;51.404;-0.038;2023-03-26T04:17:20;9.40;99.90
46231;DHT22;31949;51.404;-0.038;2023-03-26T04:19:50;9.30;99.90
46231;DHT22;31949;51.404;-0.038;2023-03-26T04:22:19;9.30;99.90
46231;DHT22;31949;51.404;-0.038;2023-03-26T04:24:53;9.30;99.90
46231;DHT22;31949;51.404;-0.038;2023-03-26T04:27:36;9.30;99.90
46231;DHT22;31949;51.404;-0.038;2023-03-26T04:30:17;9.20;99.90
46231;DHT22;31949;51.404;-0.038;2023-03-26T04:32:53;9.20;99.90
46231;DHT22;31949;51.404;-0.038;2023-03-26T04:35:26;9.20;99.90
46231;DHT22;31949;51.404;-0.038;2023-03-26T04:37:56;9.20;99.90
46231;DHT22;31949;51.404;-0.038;2023-03-26T04:40:33;9.30;99.90
46231;DHT22;31949;51.404;-0.038;2023-03-26T04:43:33;9.20;99.90
46231;DHT22;31949;51.404;-0.038;2023-03-26T04:46:25;9.20;99.90
46231;DHT22;31949;51.404;-0.038;2023-03-26T04:49:04;9.10;99.90
46231;DHT22;31949;51.404;-0.038;2023-03-26T04:51:36;9.10;99.90
46231;DHT22;31949;51.404;-0.038;2023-03-26T04:54:15;9.00;99.90
46231;DHT22;31949;51.404;-0.038;2023-03-26T04:57:02;9.00;99.90
46231;DHT22;31949;51.404;-0.038;2023-03-26T04:59:47;9.00;99.90
46231;DHT22;31949;51.404;-0.038;2023-03-26T05:02:14;9.10;99.90
46231;DHT22;31949;51.404;-0.038;2023-03-26T05:04:52;9.00;99.90
46231;DHT22;31949;51.404;-0.038;2023-03-26T05:07:21;9.00;99.90
46231;DHT22;31949;51.404;-0.038;2023-03-26T05:09:55;9.00;99.90
46231;DHT22;31949;51.404;-0.038;2023-03-26T05:12:35;9.00;99.90
46231;DHT22;31949;51.404;-0.038;2023-03-26T05:15:14;9.00;99.90
46231;DHT22;31949;51.404;-0.038;2023-03-26T05:18:00;9.00;99.90
46231;DHT22;31949;51.404;-0.038;2023-03-26T05:20:36;9.00;99.90
46231;DHT22;31949;51.404;-0.038;2023-03-26T05:23:06;9.00;99.90
46231;DHT22;31949;51.404;-0.038;2023-03-26T05:25:36;9.00;99.90
46231;DHT22;31949;51.404;-0.038;2023-03-26T05:28:10;9.00;99.90
46231;DHT22;31949;51.404;-0.038;2023-03-26T05:30:47;8.90;99.90
46231;DHT22;31949;51.404;-0.038;2023-03-26T05:33:14;8.90;99.90
46231;DHT22;31949;51.404;-0.038;2023-03-26T05:36:08;8.80;99.90
46231;DHT22;31949;51.404;-0.038;2023-03-26T05:38:42;8.90;99.90
46231;DHT22;31949;51.404;-0.038;2023-03-26T05:41:18;8.80;99.90
46231;DHT22;31949;51.404;-0.038;2023-03-26T05:43:47;8.90;99.90
46231;DHT22;31949;51.404;-0.038;2023-03-26T05:46:19;8.90;99.90
46231;DHT22;31949;51.404;-0.038;2023-03-26T05:48:49;8.80;99.90
46231;DHT22;31949;51.404;-0.038;2023-03-26T05:51:18;8.80;99.90
46231;DHT22;31949;51.404;-0.038;2023-03-26T05:53:54;8.80;99.90
46231;DHT22;31949;51.404;-0.038;2023-03-26T05:56:44;8.80;99.90
46231;DHT22;31949;51.404;-0.038;2023-03-26T05:59:13;8.80;99.90
46231;DHT22;31949;51.404;-0.038;2023-03-26T06:01:43;8.90;99.90
46231;DHT22;31949;51.404;-0.038;2023-03-26T06:04:11;8.80;99.90
46231;DHT22;31949;51.404;-0.038;2023-03-26T06:06:46;8.70;99.90
46231;DHT22;31949;51.404;-0.038;2023-03-26T06:09:19;8.60;99.90
46231;DHT22;31949;51.404;-0.038;2023-03-26T06:11:47;8.60;99.90
46231;DHT22;31949;51.404;-0.038;2023-03-26T06:14:15;8.60;99.90
46231;DHT22;31949;51.404;-0.038;2023-03-26T06:17:03;8.60;99.90
46231;DHT22;31949;51.404;-0.038;2023-03-26T06:19:48;8.60;99.90
46231;DHT22;31949;51.404;-0.038;2023-03-26T06:22:23;8.60;99.90
46231;DHT22;31949;51.404;-0.038;2023-03-26T06:25:09;8.50;99.90
46231;DHT22;31949;51.404;-0.038;2023-03-26T06:27:56;8.60;99.90
46231;DHT22;31949;51.404;-0.038;2023-03-26T06:30:52;8.60;99.90
46231;DHT22;31949;51.404;-0.038;2023-03-26T06:33:39;8.60;99.90
46231;DHT22;31949;51.404;-0.038;2023-03-26T06:36:08;8.50;99.90
46231;DHT22;31949;51.404;-0.038;2023-03-26T06:38:35;8.50;99.90
46231;DHT22;31949;51.404;-0.038;2023-03-26T06:41:05;8.50;99.90
46231;DHT22;31949;51.404;-0.038;2023-03-26T06:43:51;8.50;99.90
46231;DHT22;31949;51.404;-0.038;2023-03-26T06:46:37;8.40;99.90
46231;DHT22;31949;51.404;-0.038;2023-03-26T06:49:23;8.40;99.90
46231;DHT22;31949;51.404;-0.038;2023-03-26T06:52:11;8.40;99.90
46231;DHT22;31949;51.404;-0.038;2023-03-26T06:54:38;8.40;99.90
46231;DHT22;31949;51.404;-0.038;2023-03-26T06:57:41;8.40;99.90
46231;DHT22;31949;51.404;-0.038;2023-03-26T07:00:37;8.40;99.90
46231;DHT22;31949;51.404;-0.038;2023-03-26T07:03:40;8.50;99.90
46231;DHT22;31949;51.404;-0.038;2023-03-26T07:06:25;8.40;99.90
46231;DHT22;31949;51.404;-0.038;2023-03-26T07:09:11;8.30;99.90
46231;DHT22;31949;51.404;-0.038;2023-03-26T07:11:59;8.30;99.90
46231;DHT22;31949;51.404;-0.038;2023-03-26T07:14:55;8.30;99.90
46231;DHT22;31949;51.404;-0.038;2023-03-26T07:17:44;8.40;99.90
46231;DHT22;31949;51.404;-0.038;2023-03-26T07:20:15;8.40;99.90
46231;DHT22;31949;51.404;-0.038;2023-03-26T07:22:44;8.30;99.90
46231;DHT22;31949;51.404;-0.038;2023-03-26T07:25:17;8.30;99.90
46231;DHT22;31949;51.404;-0.038;2023-03-26T07:33:38;8.20;99.90
46231;DHT22;31949;51.404;-0.038;2023-03-26T07:45:43;8.20;99.90
46231;DHT22;31949;51.404;-0.038;2023-03-26T07:48:30;8.20;99.90
46231;DHT22;31949;51.404;-0.038;2023-03-26T07:51:26;8.20;99.90
46231;DHT22;31949;51.404;-0.038;2023-03-26T07:54:29;8.30;99.90
46231;DHT22;31949;51.404;-0.038;2023-03-26T08:00:41;8.30;99.90
46231;DHT22;31949;51.404;-0.038;2023-03-26T08:09:33;8.30;99.90
46231;DHT22;31949;51.404;-0.038;2023-03-26T08:12:25;8.30;99.90
46231;DHT22;31949;51.404;-0.038;2023-03-26T08:17:45;8.30;99.90
46231;DHT22;31949;51.404;-0.038;2023-03-26T08:26:13;8.30;99.90
46231;DHT22;31949;51.404;-0.038;2023-03-26T08:28:53;8.30;99.90
46231;DHT22;31949;51.404;-0.038;2023-03-26T08:31:43;8.20;99.90
46231;DHT22;31949;51.404;-0.038;2023-03-26T08:34:12;8.20;99.90
46231;DHT22;31949;51.404;-0.038;2023-03-26T08:36:40;8.20;99.90
46231;DHT22;31949;51.404;-0.038;2023-03-26T08:39:07;8.20;99.90
46231;DHT22;31949;51.404;-0.038;2023-03-26T08:45:10;8.20;99.90
46231;DHT22;31949;51.404;-0.038;2023-03-26T08:50:47;8.20;99.90
46231;DHT22;31949;51.404;-0.038;2023-03-26T08:56:46;8.20;99.90
46231;DHT22;31949;51.404;-0.038;2023-03-26T09:05:07;8.20;99.90
46231;DHT22;31949;51.404;-0.038;2023-03-26T09:38:32;8.50;99.90
46231;DHT22;31949;51.404;-0.038;2023-03-26T09:41:28;8.60;99.90
46231;DHT22;31949;51.404;-0.038;2023-03-26T09:46:54;8.60;99.90
46231;DHT22;31949;51.404;-0.038;2023-03-26T09:52:15;8.60;99.90
46231;DHT22;31949;51.404;-0.038;2023-03-26T09:58:07;8.50;99.90
46231;DHT22;31949;51.404;-0.038;2023-03-26T10:01:08;8.60;99.90
46231;DHT22;31949;51.404;-0.038;2023-03-26T10:20:31;8.90;99.90
46231;DHT22;31949;51.404;-0.038;2023-03-26T10:25:41;9.20;99.90
46231;DHT22;31949;51.404;-0.038;2023-03-26T10:37:28;9.50;99.90
46231;DHT22;31949;51.404;-0.038;2023-03-26T10:40:26;9.60;99.90
46231;DHT22;31949;51.404;-0.038;2023-03-26T10:45:39;9.70;99.90
46231;DHT22;31949;51.404;-0.038;2023-03-26T10:56:34;9.80;99.90
46231;DHT22;31949;51.404;-0.038;2023-03-26T10:59:07;9.90;99.90
46231;DHT22;31949;51.404;-0.038;2023-03-26T11:07:17;10.00;99.90
46231;DHT22;31949;51.404;-0.038;2023-03-26T11:10:01;10.00;99.90
46231;DHT22;31949;51.404;-0.038;2023-03-26T11:18:17;10.20;99.90
46231;DHT22;31949;51.404;-0.038;2023-03-26T11:20:38;10.30;99.90
46231;DHT22;31949;51.404;-0.038;2023-03-26T11:26:28;10.30;99.90
46231;DHT22;31949;51.404;-0.038;2023-03-26T11:32:38;10.40;99.90
46231;DHT22;31949;51.404;-0.038;2023-03-26T11:35:06;10.40;99.90
46231;DHT22;31949;51.404;-0.038;2023-03-26T11:37:40;10.40;99.90
46231;DHT22;31949;51.404;-0.038;2023-03-26T11:40:24;10.40;99.90
46231;DHT22;31949;51.404;-0.038;2023-03-26T11:42:59;10.50;99.90
46231;DHT22;31949;51.404;-0.038;2023-03-26T11:45:30;10.50;99.90
46231;DHT22;31949;51.404;-0.038;2023-03-26T11:48:26;10.50;99.90
46231;DHT22;31949;51.404;-0.038;2023-03-26T11:51:04;10.60;99.90
46231;DHT22;31949;51.404;-0.038;2023-03-26T11:53:34;10.70;99.90
46231;DHT22;31949;51.404;-0.038;2023-03-26T11:56:55;10.80;99.90
46231;DHT22;31949;51.404;-0.038;2023-03-26T12:07:18;11.50;99.90
46231;DHT22;31949;51.404;-0.038;2023-03-26T12:09:54;11.40;99.90
46231;DHT22;31949;51.404;-0.038;2023-03-26T12:12:28;11.30;99.90
46231;DHT22;31949;51.404;-0.038;2023-03-26T12:14:59;11.20;99.90
46231;DHT22;31949;51.404;-0.038;2023-03-26T12:17:35;11.20;99.90
46231;DHT22;31949;51.404;-0.038;2023-03-26T12:22:58;11.00;99.90
46231;DHT22;31949;51.404;-0.038;2023-03-26T12:25:35;10.80;99.90
46231;DHT22;31949;51.404;-0.038;2023-03-26T12:30:41;10.70;99.90
46231;DHT22;31949;51.404;-0.038;2023-03-26T12:33:40;10.50;99.90
46231;DHT22;31949;51.404;-0.038;2023-03-26T12:36:18;10.40;99.90
46231;DHT22;31949;51.404;-0.038;2023-03-26T12:38:46;10.30;99.90
46231;DHT22;31949;51.404;-0.038;2023-03-26T12:41:35;10.30;99.90
46231;DHT22;31949;51.404;-0.038;2023-03-26T12:44:45;10.20;99.90
46231;DHT22;31949;51.404;-0.038;2023-03-26T12:47:29;10.20;99.90
46231;DHT22;31949;51.404;-0.038;2023-03-26T12:50:21;10.10;99.90
46231;DHT22;31949;51.404;-0.038;2023-03-26T12:53:29;10.00;99.90
46231;DHT22;31949;51.404;-0.038;2023-03-26T13:01:34;9.90;99.90
46231;DHT22;31949;51.404;-0.038;2023-03-26T13:06:47;9.90;99.90
46231;DHT22;31949;51.404;-0.038;2023-03-26T13:09:43;10.00;99.90
46231;DHT22;31949;51.404;-0.038;2023-03-26T13:12:23;10.00;99.90
46231;DHT22;31949;51.404;-0.038;2023-03-26T13:14:59;9.90;99.90
46231;DHT22;31949;51.404;-0.038;2023-03-26T13:17:49;9.90;99.90
46231;DHT22;31949;51.404;-0.038;2023-03-26T13:20:30;9.80;99.90
46231;DHT22;31949;51.404;-0.038;2023-03-26T13:29:00;9.90;99.90
46231;DHT22;31949;51.404;-0.038;2023-03-26T13:40:16;9.70;99.90
46231;DHT22;31949;51.404;-0.038;2023-03-26T13:43:10;9.60;99.90
46231;DHT22;31949;51.404;-0.038;2023-03-26T13:45:49;9.50;99.90
46231;DHT22;31949;51.404;-0.038;2023-03-26T13:48:23;9.50;99.90
46231;DHT22;31949;51.404;-0.038;2023-03-26T13:51:07;9.40;99.90
46231;DHT22;31949;51.404;-0.038;2023-03-26T13:54:19;9.50;99.90
46231;DHT22;31949;51.404;-0.038;2023-03-26T13:57:00;9.50;99.90
46231;DHT22;31949;51.404;-0.038;2023-03-26T14:02:42;9.70;99.90
46231;DHT22;31949;51.404;-0.038;2023-03-26T14:05:34;9.70;99.90
46231;DHT22;31949;51.404;-0.038;2023-03-26T14:08:21;9.60;99.90
46231;DHT22;31949;51.404;-0.038;2023-03-26T14:10:55;9.60;99.90
46231;DHT22;31949;51.404;-0.038;2023-03-26T14:13:42;9.60;99.90
46231;DHT22;31949;51.404;-0.038;2023-03-26T14:16:25;9.70;99.90
46231;DHT22;31949;51.404;-0.038;2023-03-26T14:27:36;9.70;99.90
46231;DHT22;31949;51.404;-0.038;2023-03-26T14:33:16;9.80;99.90
46231;DHT22;31949;51.404;-0.038;2023-03-26T14:47:41;9.80;99.90
46231;DHT22;31949;51.404;-0.038;2023-03-26T14:51:31;9.70;99.90
46231;DHT22;31949;51.404;-0.038;2023-03-26T14:53:30;9.80;99.90
46231;DHT22;31949;51.404;-0.038;2023-03-26T14:56:09;9.80;99.90
46231;DHT22;31949;51.404;-0.038;2023-03-26T15:13:24;9.60;99.90
46231;DHT22;31949;51.404;-0.038;2023-03-26T15:16:07;9.60;99.90
46231;DHT22;31949;51.404;-0.038;2023-03-26T15:33:20;9.60;99.90
46231;DHT22;31949;51.404;-0.038;2023-03-26T15:49:15;9.40;99.90
46231;DHT22;31949;51.404;-0.038;2023-03-26T15:57:29;9.50;99.90
46231;DHT22;31949;51.404;-0.038;2023-03-26T16:00:29;9.50;99.90
46231;DHT22;31949;51.404;-0.038;2023-03-26T16:09:07;9.30;99.90
46231;DHT22;31949;51.404;-0.038;2023-03-26T16:14:40;9.20;99.90
46231;DHT22;31949;51.404;-0.038;2023-03-26T16:17:15;9.30;99.90
46231;DHT22;31949;51.404;-0.038;2023-03-26T16:19:47;9.30;99.90
46231;DHT22;31949;51.404;-0.038;2023-03-26T16:28:15;9.20;99.90
46231;DHT22;31949;51.404;-0.038;2023-03-26T16:36:44;9.10;99.90
46231;DHT22;31949;51.404;-0.038;2023-03-26T16:42:07;9.10;99.90
46231;DHT22;31949;51.404;-0.038;2023-03-26T16:45:09;9.10;99.90
46231;DHT22;31949;51.404;-0.038;2023-03-26T16:50:31;9.10;99.90
46231;DHT22;31949;51.404;-0.038;2023-03-26T16:56:10;9.00;99.90
46231;DHT22;31949;51.404;-0.038;2023-03-26T16:59:10;9.00;99.90
46231;DHT22;31949;51.404;-0.038;2023-03-26T17:04:19;8.80;99.90
46231;DHT22;31949;51.404;-0.038;2023-03-26T17:09:50;8.70;99.90
46231;DHT22;31949;51.404;-0.038;2023-03-26T17:18:32;8.60;99.90
46231;DHT22;31949;51.404;-0.038;2023-03-26T17:21:07;8.60;99.90
46231;DHT22;31949;51.404;-0.038;2023-03-26T17:29:23;8.50;99.90
46231;DHT22;31949;51.404;-0.038;2023-03-26T17:32:03;8.50;99.90
46231;DHT22;31949;51.404;-0.038;2023-03-26T17:45:00;8.60;99.90
46231;DHT22;31949;51.404;-0.038;2023-03-26T17:47:39;8.60;99.90
46231;DHT22;31949;51.404;-0.038;2023-03-26T17:55:20;8.60;99.90
46231;DHT22;31949;51.404;-0.038;2023-03-26T17:57:52;8.60;99.90
46231;DHT22;31949;51.404;-0.038;2023-03-26T18:00:28;8.60;99.90
46231;DHT22;31949;51.404;-0.038;2023-03-26T18:03:20;8.60;99.90
46231;DHT22;31949;51.404;-0.038;2023-03-26T18:05:53;8.60;99.90
46231;DHT22;31949;51.404;-0.038;2023-03-26T18:08:34;8.50;99.90
46231;DHT22;31949;51.404;-0.038;2023-03-26T18:16:53;8.50;99.90
46231;DHT22;31949;51.404;-0.038;2023-03-26T18:19:22;8.50;99.90
46231;DHT22;31949;51.404;-0.038;2023-03-26T18:21:52;8.50;99.90
46231;DHT22;31949;51.404;-0.038;2023-03-26T18:24:24;8.50;99.90
46231;DHT22;31949;51.404;-0.038;2023-03-26T18:27:18;8.50;99.90
46231;DHT22;31949;51.404;-0.038;2023-03-26T18:32:30;8.50;99.90
46231;DHT22;31949;51.404;-0.038;2023-03-26T18:35:15;8.40;99.90
46231;DHT22;31949;51.404;-0.038;2023-03-26T18:37:46;8.40;99.90
46231;DHT22;31949;51.404;-0.038;2023-03-26T18:40:19;8.30;99.90
46231;DHT22;31949;51.404;-0.038;2023-03-26T18:42:52;8.20;99.90
46231;DHT22;31949;51.404;-0.038;2023-03-26T18:45:28;8.20;99.90
46231;DHT22;31949;51.404;-0.038;2023-03-26T18:48:01;8.10;99.90
46231;DHT22;31949;51.404;-0.038;2023-03-26T18:50:35;8.10;99.90
46231;DHT22;31949;51.404;-0.038;2023-03-26T18:53:05;8.10;99.90
46231;DHT22;31949;51.404;-0.038;2023-03-26T18:55:35;8.00;99.90
46231;DHT22;31949;51.404;-0.038;2023-03-26T18:58:27;8.00;99.90
46231;DHT22;31949;51.404;-0.038;2023-03-26T19:01:05;8.00;99.90
46231;DHT22;31949;51.404;-0.038;2023-03-26T19:03:46;8.00;99.90
46231;DHT22;31949;51.404;-0.038;2023-03-26T19:06:14;8.00;99.90
46231;DHT22;31949;51.404;-0.038;2023-03-26T19:08:44;8.00;99.90
46231;DHT22;31949;51.404;-0.038;2023-03-26T19:11:15;8.00;99.90
46231;DHT22;31949;51.404;-0.038;2023-03-26T19:13:45;8.00;99.90
46231;DHT22;31949;51.404;-0.038;2023-03-26T19:16:20;7.90;99.90
46231;DHT22;31949;51.404;-0.038;2023-03-26T19:18:49;7.90;99.90
46231;DHT22;31949;51.404;-0.038;2023-03-26T19:21:17;7.90;99.90
46231;DHT22;31949;51.404;-0.038;2023-03-26T19:23:46;7.90;99.90
46231;DHT22;31949;51.404;-0.038;2023-03-26T19:26:14;7.90;99.90
46231;DHT22;31949;51.404;-0.038;2023-03-26T19:28:45;8.00;99.90
46231;DHT22;31949;51.404;-0.038;2023-03-26T19:31:25;8.00;99.90
46231;DHT22;31949;51.404;-0.038;2023-03-26T19:34:01;8.00;99.90
46231;DHT22;31949;51.404;-0.038;2023-03-26T19:36:31;8.00;99.90
46231;DHT22;31949;51.404;-0.038;2023-03-26T19:41:34;8.00;99.90
46231;DHT22;31949;51.404;-0.038;2023-03-26T19:44:20;8.00;99.90
46231;DHT22;31949;51.404;-0.038;2023-03-26T19:46:51;7.90;99.90
46231;DHT22;31949;51.404;-0.038;2023-03-26T19:49:30;8.00;99.90
46231;DHT22;31949;51.404;-0.038;2023-03-26T19:52:11;7.90;99.90
46231;DHT22;31949;51.404;-0.038;2023-03-26T19:57:31;7.90;99.90
46231;DHT22;31949;51.404;-0.038;2023-03-26T19:59:58;7.90;99.90
46231;DHT22;31949;51.404;-0.038;2023-03-26T20:02:26;7.90;99.90
46231;DHT22;31949;51.404;-0.038;2023-03-26T20:04:54;7.80;99.90
46231;DHT22;31949;51.404;-0.038;2023-03-26T20:07:23;7.80;99.90
46231;DHT22;31949;51.404;-0.038;2023-03-26T20:10:03;7.80;99.90
46231;DHT22;31949;51.404;-0.038;2023-03-26T20:12:32;7.80;99.90
46231;DHT22;31949;51.404;-0.038;2023-03-26T20:14:59;7.80;99.90
46231;DHT22;31949;51.404;-0.038;2023-03-26T20:17:27;7.80;99.90
46231;DHT22;31949;51.404;-0.038;2023-03-26T20:19:57;7.80;99.90
46231;DHT22;31949;51.404;-0.038;2023-03-26T20:22:24;7.80;99.90
46231;DHT22;31949;51.404;-0.038;2023-03-26T20:24:52;7.70;99.90
46231;DHT22;31949;51.404;-0.038;2023-03-26T20:27:20;7.70;99.90
46231;DHT22;31949;51.404;-0.038;2023-03-26T20:29:48;7.70;99.90
46231;DHT22;31949;51.404;-0.038;2023-03-26T20:32:21;7.70;99.90
46231;DHT22;31949;51.404;-0.038;2023-03-26T20:34:53;7.70;99.90
46231;DHT22;31949;51.404;-0.038;2023-03-26T20:37:20;7.70;99.90
46231;DHT22;31949;51.404;-0.038;2023-03-26T20:39:48;7.70;99.90
46231;DHT22;31949;51.404;-0.038;2023-03-26T20:42:16;7.60;99.90
46231;DHT22;31949;51.404;-0.038;2023-03-26T20:44:43;7.70;99.90
46231;DHT22;31949;51.404;-0.038;2023-03-26T20:47:10;7.70;99.90
46231;DHT22;31949;51.404;-0.038;2023-03-26T20:49:38;7.70;99.90
46231;DHT22;31949;51.404;-0.038;2023-03-26T20:52:06;7.60;99.90
46231;DHT22;31949;51.404;-0.038;2023-03-26T20:54:33;7.60;99.90
46231;DHT22;31949;51.404;-0.038;2023-03-26T20:57:01;7.60;99.90
46231;DHT22;31949;51.404;-0.038;2023-03-26T20:59:28;7.60;99.90
46231;DHT22;31949;51.404;-0.038;2023-03-26T21:01:56;7.60;99.90
46231;DHT22;31949;51.404;-0.038;2023-03-26T21:04:25;7.60;99.90
46231;DHT22;31949;51.404;-0.038;2023-03-26T21:06:53;7.60;99.90
46231;DHT22;31949;51.404;-0.038;2023-03-26T21:09:33;7.50;99.90
46231;DHT22;31949;51.404;-0.038;2023-03-26T21:12:04;7.50;99.90
46231;DHT22;31949;51.404;-0.038;2023-03-26T21:14:38;7.50;99.90
46231;DHT22;31949;51.404;-0.038;2023-03-26T21:17:19;7.50;99.90
46231;DHT22;31949;51.404;-0.038;2023-03-26T21:19:47;7.50;99.90
46231;DHT22;31949;51.404;-0.038;2023-03-26T21:25:36;7.50;99.90
46231;DHT22;31949;51.404;-0.038;2023-03-26T21:31:19;7.50;99.90
46231;DHT22;31949;51.404;-0.038;2023-03-26T21:33:47;7.50;99.90
46231;DHT22;31949;51.404;-0.038;2023-03-26T21:36:17;7.50;99.90
46231;DHT22;31949;51.404;-0.038;2023-03-26T21:38:46;7.50;99.90
46231;DHT22;31949;51.404;-0.038;2023-03-26T21:44:09;7.50;99.90
46231;DHT22;31949;51.404;-0.038;2023-03-26T21:46:40;7.50;99.90
46231;DHT22;31949;51.404;-0.038;2023-03-26T21:49:08;7.50;99.90
46231;DHT22;31949;51.404;-0.038;2023-03-26T21:51:36;7.50;99.90
46231;DHT22;31949;51.404;-0.038;2023-03-26T21:54:21;7.50;99.90
46231;DHT22;31949;51.404;-0.038;2023-03-26T22:00:04;7.50;99.90
46231;DHT22;31949;51.404;-0.038;2023-03-26T22:06:36;7.50;99.90
46231;DHT22;31949;51.404;-0.038;2023-03-26T22:08:44;7.40;99.90
46231;DHT22;31949;51.404;-0.038;2023-03-26T22:11:11;7.40;99.90
46231;DHT22;31949;51.404;-0.038;2023-03-26T22:13:38;7.40;99.90
46231;DHT22;31949;51.404;-0.038;2023-03-26T22:16:08;7.50;99.90
46231;DHT22;31949;51.404;-0.038;2023-03-26T22:18:37;7.50;99.90
46231;DHT22;31949;51.404;-0.038;2023-03-26T22:21:04;7.50;99.90
46231;DHT22;31949;51.404;-0.038;2023-03-26T22:23:32;7.40;99.90
46231;DHT22;31949;51.404;-0.038;2023-03-26T22:26:03;7.50;99.90
46231;DHT22;31949;51.404;-0.038;2023-03-26T22:28:30;7.40;99.90
46231;DHT22;31949;51.404;-0.038;2023-03-26T22:30:58;7.40;99.90
46231;DHT22;31949;51.404;-0.038;2023-03-26T22:33:25;7.50;99.90